sensor_id;sensor_type;location;lat;lon;timestamp;temperature;humidity
52879;DHT22;38747;53.140;6.498;2022-10-19T00:00:42;10.60;99.90
52879;DHT22;38747;53.140;6.498;2022-10-19T00:03:08;10.70;99.90
52879;DHT22;38747;53.140;6.498;2022-10-19T00:05:33;10.70;99.90
52879;DHT22;38747;53.140;6.498;2022-10-19T00:07:59;10.70;99.90
52879;DHT22;38747;53.140;6.498;2022-10-19T00:10:26;10.70;99.90
52879;DHT22;38747;53.140;6.498;2022-10-19T00:12:52;10.70;99.90
52879;DHT22;38747;53.140;6.498;2022-10-19T00:15:17;10.70;99.90
52879;DHT22;38747;53.140;6.498;2022-10-19T00:17:43;10.70;99.90
52879;DHT22;38747;53.140;6.498;2022-10-19T00:20:09;10.70;99.90
52879;DHT22;38747;53.140;6.498;2022-10-19T00:22:35;10.70;99.90
52879;DHT22;38747;53.140;6.498;2022-10-19T00:25:00;10.70;99.90
52879;DHT22;38747;53.140;6.498;2022-10-19T00:27:26;10.70;99.90
52879;DHT22;38747;53.140;6.498;2022-10-19T00:29:51;10.70;99.90
52879;DHT22;38747;53.140;6.498;2022-10-19T00:32:17;10.70;99.90
52879;DHT22;38747;53.140;6.498;2022-10-19T00:34:43;10.70;99.90
52879;DHT22;38747;53.140;6.498;2022-10-19T00:37:08;10.70;99.90
52879;DHT22;38747;53.140;6.498;2022-10-19T00:39:34;10.70;99.90
52879;DHT22;38747;53.140;6.498;2022-10-19T00:41:59;10.70;99.90
52879;DHT22;38747;53.140;6.498;2022-10-19T00:46:57;10.70;99.90
52879;DHT22;38747;53.140;6.498;2022-10-19T00:49:27;10.70;99.90
52879;DHT22;38747;53.140;6.498;2022-10-19T00:52:03;10.80;99.90
52879;DHT22;38747;53.140;6.498;2022-10-19T00:54:31;10.80;99.90
52879;DHT22;38747;53.140;6.498;2022-10-19T00:56:58;10.80;99.90
52879;DHT22;38747;53.140;6.498;2022-10-19T00:59:25;10.80;99.90
52879;DHT22;38747;53.140;6.498;2022-10-19T01:01:52;10.80;99.90
52879;DHT22;38747;53.140;6.498;2022-10-19T01:04:22;10.80;99.90
52879;DHT22;38747;53.140;6.498;2022-10-19T01:06:49;10.80;99.90
52879;DHT22;38747;53.140;6.498;2022-10-19T01:09:15;10.80;99.90
52879;DHT22;38747;53.140;6.498;2022-10-19T01:12:04;10.80;99.90
52879;DHT22;38747;53.140;6.498;2022-10-19T01:17:36;10.90;99.90
52879;DHT22;38747;53.140;6.498;2022-10-19T01:22:59;10.90;99.90
52879;DHT22;38747;53.140;6.498;2022-10-19T01:28:20;10.90;99.90
52879;DHT22;38747;53.140;6.498;2022-10-19T01:31:01;10.90;99.90
52879;DHT22;38747;53.140;6.498;2022-10-19T01:33:47;11.00;99.90
52879;DHT22;38747;53.140;6.498;2022-10-19T01:39:03;11.00;99.90
52879;DHT22;38747;53.140;6.498;2022-10-19T01:42:17;11.00;99.90
52879;DHT22;38747;53.140;6.498;2022-10-19T01:44:26;11.10;99.90
52879;DHT22;38747;53.140;6.498;2022-10-19T01:46:58;11.10;99.90
52879;DHT22;38747;53.140;6.498;2022-10-19T01:52:03;11.10;99.90
52879;DHT22;38747;53.140;6.498;2022-10-19T01:54:35;11.00;99.90
52879;DHT22;38747;53.140;6.498;2022-10-19T01:57:04;11.00;99.90
52879;DHT22;38747;53.140;6.498;2022-10-19T01:59:32;11.00;99.90
52879;DHT22;38747;53.140;6.498;2022-10-19T02:01:58;11.00;99.90
52879;DHT22;38747;53.140;6.498;2022-10-19T02:04:25;11.00;99.90
52879;DHT22;38747;53.140;6.498;2022-10-19T02:06:52;11.00;99.90
52879;DHT22;38747;53.140;6.498;2022-10-19T02:09:18;11.00;99.90
52879;DHT22;38747;53.140;6.498;2022-10-19T02:11:50;11.00;99.90
52879;DHT22;38747;53.140;6.498;2022-10-19T02:14:18;11.00;99.90
52879;DHT22;38747;53.140;6.498;2022-10-19T02:16:58;10.90;99.90
52879;DHT22;38747;53.140;6.498;2022-10-19T02:19:25;10.90;99.90
52879;DHT22;38747;53.140;6.498;2022-10-19T02:21:51;10.90;99.90
52879;DHT22;38747;53.140;6.498;2022-10-19T02:24:17;10.90;99.90
52879;DHT22;38747;53.140;6.498;2022-10-19T02:26:42;10.90;99.90
52879;DHT22;38747;53.140;6.498;2022-10-19T02:29:09;10.90;99.90
52879;DHT22;38747;53.140;6.498;2022-10-19T02:31:35;10.90;99.90
52879;DHT22;38747;53.140;6.498;2022-10-19T02:34:01;10.90;99.90
52879;DHT22;38747;53.140;6.498;2022-10-19T02:36:26;10.90;99.90
52879;DHT22;38747;53.140;6.498;2022-10-19T02:38:52;10.90;99.90
52879;DHT22;38747;53.140;6.498;2022-10-19T02:41:32;10.90;99.90
52879;DHT22;38747;53.140;6.498;2022-10-19T02:44:10;10.90;99.90
52879;DHT22;38747;53.140;6.498;2022-10-19T02:46:39;10.90;99.90
52879;DHT22;38747;53.140;6.498;2022-10-19T02:49:07;10.90;99.90
52879;DHT22;38747;53.140;6.498;2022-10-19T02:51:36;10.80;99.90
52879;DHT22;38747;53.140;6.498;2022-10-19T02:54:04;10.80;99.90
52879;DHT22;38747;53.140;6.498;2022-10-19T02:56:30;10.80;99.90
52879;DHT22;38747;53.140;6.498;2022-10-19T02:58:56;10.70;99.90
52879;DHT22;38747;53.140;6.498;2022-10-19T03:01:21;10.60;99.90
52879;DHT22;38747;53.140;6.498;2022-10-19T03:03:47;10.50;99.90
52879;DHT22;38747;53.140;6.498;2022-10-19T03:06:13;10.40;99.90
52879;DHT22;38747;53.140;6.498;2022-10-19T03:08:39;10.40;99.90
52879;DHT22;38747;53.140;6.498;2022-10-19T03:11:04;10.30;99.90
52879;DHT22;38747;53.140;6.498;2022-10-19T03:13:30;10.30;99.90
52879;DHT22;38747;53.140;6.498;2022-10-19T03:15:56;10.20;99.90
52879;DHT22;38747;53.140;6.498;2022-10-19T03:18:21;10.20;99.90
52879;DHT22;38747;53.140;6.498;2022-10-19T03:20:47;10.10;99.90
52879;DHT22;38747;53.140;6.498;2022-10-19T03:23:12;10.10;99.90
52879;DHT22;38747;53.140;6.498;2022-10-19T03:25:38;10.00;99.90
52879;DHT22;38747;53.140;6.498;2022-10-19T03:28:03;9.90;99.90
52879;DHT22;38747;53.140;6.498;2022-10-19T03:30:29;9.90;99.90
52879;DHT22;38747;53.140;6.498;2022-10-19T03:32:55;9.80;99.90
52879;DHT22;38747;53.140;6.498;2022-10-19T03:35:20;9.70;99.90
52879;DHT22;38747;53.140;6.498;2022-10-19T03:37:46;9.60;99.90
52879;DHT22;38747;53.140;6.498;2022-10-19T03:40:11;9.60;99.90
52879;DHT22;38747;53.140;6.498;2022-10-19T03:42:37;9.50;99.90
52879;DHT22;38747;53.140;6.498;2022-10-19T03:45:03;9.50;99.90
52879;DHT22;38747;53.140;6.498;2022-10-19T03:47:29;9.60;99.90
52879;DHT22;38747;53.140;6.498;2022-10-19T03:49:54;9.50;99.90
52879;DHT22;38747;53.140;6.498;2022-10-19T03:52:20;9.60;99.90
52879;DHT22;38747;53.140;6.498;2022-10-19T03:54:49;9.60;99.90
52879;DHT22;38747;53.140;6.498;2022-10-19T03:57:15;9.60;99.90
52879;DHT22;38747;53.140;6.498;2022-10-19T03:59:41;9.60;99.90
52879;DHT22;38747;53.140;6.498;2022-10-19T04:02:06;9.60;99.90
52879;DHT22;38747;53.140;6.498;2022-10-19T04:04:35;9.60;99.90
52879;DHT22;38747;53.140;6.498;2022-10-19T04:07:01;9.70;99.90
52879;DHT22;38747;53.140;6.498;2022-10-19T04:09:26;9.70;99.90
52879;DHT22;38747;53.140;6.498;2022-10-19T04:11:52;9.70;99.90
52879;DHT22;38747;53.140;6.498;2022-10-19T04:14:19;9.70;99.90
52879;DHT22;38747;53.140;6.498;2022-10-19T04:16:46;9.80;99.90
52879;DHT22;38747;53.140;6.498;2022-10-19T04:19:13;10.00;99.90
52879;DHT22;38747;53.140;6.498;2022-10-19T04:21:40;10.10;99.90
52879;DHT22;38747;53.140;6.498;2022-10-19T04:24:09;10.20;99.90
52879;DHT22;38747;53.140;6.498;2022-10-19T04:26:45;10.20;99.90
52879;DHT22;38747;53.140;6.498;2022-10-19T04:29:11;10.30;99.90
52879;DHT22;38747;53.140;6.498;2022-10-19T04:31:37;10.40;99.90
52879;DHT22;38747;53.140;6.498;2022-10-19T04:34:04;10.30;99.90
52879;DHT22;38747;53.140;6.498;2022-10-19T04:36:29;10.40;99.90
52879;DHT22;38747;53.140;6.498;2022-10-19T04:38:55;10.40;99.90
52879;DHT22;38747;53.140;6.498;2022-10-19T04:41:21;10.40;99.90
52879;DHT22;38747;53.140;6.498;2022-10-19T04:43:48;10.40;99.90
52879;DHT22;38747;53.140;6.498;2022-10-19T04:46:18;10.40;99.90
52879;DHT22;38747;53.140;6.498;2022-10-19T04:48:45;10.40;99.90
52879;DHT22;38747;53.140;6.498;2022-10-19T04:51:11;10.40;99.90
52879;DHT22;38747;53.140;6.498;2022-10-19T04:53:39;10.40;99.90
52879;DHT22;38747;53.140;6.498;2022-10-19T04:56:08;10.30;99.90
52879;DHT22;38747;53.140;6.498;2022-10-19T04:58:34;10.30;99.90
52879;DHT22;38747;53.140;6.498;2022-10-19T05:01:07;10.30;99.90
52879;DHT22;38747;53.140;6.498;2022-10-19T05:03:33;10.30;99.90
52879;DHT22;38747;53.140;6.498;2022-10-19T05:05:58;10.30;99.90
52879;DHT22;38747;53.140;6.498;2022-10-19T05:08:24;10.30;99.90
52879;DHT22;38747;53.140;6.498;2022-10-19T05:10:49;10.30;99.90
52879;DHT22;38747;53.140;6.498;2022-10-19T05:13:15;10.20;99.90
52879;DHT22;38747;53.140;6.498;2022-10-19T05:15:41;10.20;99.90
52879;DHT22;38747;53.140;6.498;2022-10-19T05:18:06;10.20;99.90
52879;DHT22;38747;53.140;6.498;2022-10-19T05:20:32;10.20;99.90
52879;DHT22;38747;53.140;6.498;2022-10-19T05:22:57;10.30;99.90
52879;DHT22;38747;53.140;6.498;2022-10-19T05:25:23;10.30;99.90
52879;DHT22;38747;53.140;6.498;2022-10-19T05:27:52;10.30;99.90
52879;DHT22;38747;53.140;6.498;2022-10-19T05:30:19;10.30;99.90
52879;DHT22;38747;53.140;6.498;2022-10-19T05:32:46;10.30;99.90
52879;DHT22;38747;53.140;6.498;2022-10-19T05:35:12;10.30;99.90
52879;DHT22;38747;53.140;6.498;2022-10-19T05:37:38;10.30;99.90
52879;DHT22;38747;53.140;6.498;2022-10-19T05:40:04;10.30;99.90
52879;DHT22;38747;53.140;6.498;2022-10-19T05:42:29;10.30;99.90
52879;DHT22;38747;53.140;6.498;2022-10-19T05:44:55;10.20;99.90
52879;DHT22;38747;53.140;6.498;2022-10-19T05:47:21;10.30;99.90
52879;DHT22;38747;53.140;6.498;2022-10-19T05:49:47;10.30;99.90
52879;DHT22;38747;53.140;6.498;2022-10-19T05:52:12;10.20;99.90
52879;DHT22;38747;53.140;6.498;2022-10-19T05:54:38;10.30;99.90
52879;DHT22;38747;53.140;6.498;2022-10-19T05:57:04;10.20;99.90
52879;DHT22;38747;53.140;6.498;2022-10-19T05:59:29;10.30;99.90
52879;DHT22;38747;53.140;6.498;2022-10-19T06:01:55;10.30;99.90
52879;DHT22;38747;53.140;6.498;2022-10-19T06:04:21;10.30;99.90
52879;DHT22;38747;53.140;6.498;2022-10-19T06:06:46;10.30;99.90
52879;DHT22;38747;53.140;6.498;2022-10-19T06:09:12;10.30;99.90
52879;DHT22;38747;53.140;6.498;2022-10-19T06:11:39;10.30;99.90
52879;DHT22;38747;53.140;6.498;2022-10-19T06:14:10;10.30;99.90
52879;DHT22;38747;53.140;6.498;2022-10-19T06:16:36;10.30;99.90
52879;DHT22;38747;53.140;6.498;2022-10-19T06:19:03;10.20;99.90
52879;DHT22;38747;53.140;6.498;2022-10-19T06:21:30;10.20;99.90
52879;DHT22;38747;53.140;6.498;2022-10-19T06:23:57;10.20;99.90
52879;DHT22;38747;53.140;6.498;2022-10-19T06:26:24;10.20;99.90
52879;DHT22;38747;53.140;6.498;2022-10-19T06:28:54;10.20;99.90
52879;DHT22;38747;53.140;6.498;2022-10-19T06:31:20;10.20;99.90
52879;DHT22;38747;53.140;6.498;2022-10-19T06:33:46;10.20;99.90
52879;DHT22;38747;53.140;6.498;2022-10-19T06:36:14;10.20;99.90
52879;DHT22;38747;53.140;6.498;2022-10-19T06:38:41;10.30;99.90
52879;DHT22;38747;53.140;6.498;2022-10-19T06:41:07;10.30;99.90
52879;DHT22;38747;53.140;6.498;2022-10-19T06:43:34;10.30;99.90
52879;DHT22;38747;53.140;6.498;2022-10-19T06:46:19;10.30;99.90
52879;DHT22;38747;53.140;6.498;2022-10-19T06:48:55;10.30;99.90
52879;DHT22;38747;53.140;6.498;2022-10-19T06:51:23;10.40;99.90
52879;DHT22;38747;53.140;6.498;2022-10-19T06:53:49;10.40;99.90
52879;DHT22;38747;53.140;6.498;2022-10-19T06:56:15;10.40;99.90
52879;DHT22;38747;53.140;6.498;2022-10-19T06:58:41;10.40;99.90
52879;DHT22;38747;53.140;6.498;2022-10-19T07:01:07;10.40;99.90
52879;DHT22;38747;53.140;6.498;2022-10-19T07:03:34;10.40;99.90
52879;DHT22;38747;53.140;6.498;2022-10-19T07:06:01;10.40;99.90
52879;DHT22;38747;53.140;6.498;2022-10-19T07:08:29;10.50;99.90
52879;DHT22;38747;53.140;6.498;2022-10-19T07:10:59;10.50;99.90
52879;DHT22;38747;53.140;6.498;2022-10-19T07:13:26;10.50;99.90
52879;DHT22;38747;53.140;6.498;2022-10-19T07:15:57;10.60;99.90
52879;DHT22;38747;53.140;6.498;2022-10-19T07:18:23;10.60;99.90
52879;DHT22;38747;53.140;6.498;2022-10-19T07:20:56;10.70;99.90
52879;DHT22;38747;53.140;6.498;2022-10-19T07:23:23;10.80;99.90
52879;DHT22;38747;53.140;6.498;2022-10-19T07:25:49;10.80;99.90
52879;DHT22;38747;53.140;6.498;2022-10-19T07:28:17;10.80;99.90
52879;DHT22;38747;53.140;6.498;2022-10-19T07:30:42;10.90;99.90
52879;DHT22;38747;53.140;6.498;2022-10-19T07:33:08;11.00;99.90
52879;DHT22;38747;53.140;6.498;2022-10-19T07:35:33;11.00;99.90
52879;DHT22;38747;53.140;6.498;2022-10-19T07:37:59;11.00;99.90
52879;DHT22;38747;53.140;6.498;2022-10-19T07:40:24;11.10;99.90
52879;DHT22;38747;53.140;6.498;2022-10-19T07:42:50;11.10;99.90
52879;DHT22;38747;53.140;6.498;2022-10-19T07:45:16;11.10;99.90
52879;DHT22;38747;53.140;6.498;2022-10-19T07:47:41;11.20;99.90
52879;DHT22;38747;53.140;6.498;2022-10-19T07:50:07;11.20;99.90
52879;DHT22;38747;53.140;6.498;2022-10-19T07:52:33;11.20;99.90
52879;DHT22;38747;53.140;6.498;2022-10-19T07:54:58;11.30;99.90
52879;DHT22;38747;53.140;6.498;2022-10-19T07:57:25;11.30;99.90
52879;DHT22;38747;53.140;6.498;2022-10-19T07:59:51;11.40;99.90
52879;DHT22;38747;53.140;6.498;2022-10-19T08:02:17;11.40;99.90
52879;DHT22;38747;53.140;6.498;2022-10-19T08:04:44;11.40;99.90
52879;DHT22;38747;53.140;6.498;2022-10-19T08:07:10;11.50;99.90
52879;DHT22;38747;53.140;6.498;2022-10-19T08:09:36;11.50;99.90
52879;DHT22;38747;53.140;6.498;2022-10-19T08:12:02;11.60;99.90
52879;DHT22;38747;53.140;6.498;2022-10-19T08:14:28;11.60;99.90
52879;DHT22;38747;53.140;6.498;2022-10-19T08:16:54;11.60;99.90
52879;DHT22;38747;53.140;6.498;2022-10-19T08:19:20;11.70;99.90
52879;DHT22;38747;53.140;6.498;2022-10-19T08:21:47;11.70;99.90
52879;DHT22;38747;53.140;6.498;2022-10-19T08:24:14;11.80;99.90
52879;DHT22;38747;53.140;6.498;2022-10-19T08:26:41;11.80;99.90
52879;DHT22;38747;53.140;6.498;2022-10-19T08:29:12;11.80;99.90
52879;DHT22;38747;53.140;6.498;2022-10-19T08:31:39;11.90;99.90
52879;DHT22;38747;53.140;6.498;2022-10-19T08:34:05;11.90;99.90
52879;DHT22;38747;53.140;6.498;2022-10-19T08:36:31;12.00;99.90
52879;DHT22;38747;53.140;6.498;2022-10-19T08:39:00;12.00;99.90
52879;DHT22;38747;53.140;6.498;2022-10-19T08:41:31;12.10;99.90
52879;DHT22;38747;53.140;6.498;2022-10-19T08:46:45;12.10;99.90
52879;DHT22;38747;53.140;6.498;2022-10-19T08:49:20;12.20;99.90
52879;DHT22;38747;53.140;6.498;2022-10-19T08:51:52;12.20;99.90
52879;DHT22;38747;53.140;6.498;2022-10-19T08:54:19;12.20;99.90
52879;DHT22;38747;53.140;6.498;2022-10-19T08:57:01;12.30;99.90
52879;DHT22;38747;53.140;6.498;2022-10-19T08:59:42;12.30;99.90
52879;DHT22;38747;53.140;6.498;2022-10-19T09:04:45;12.40;99.90
52879;DHT22;38747;53.140;6.498;2022-10-19T09:07:28;12.40;99.90
52879;DHT22;38747;53.140;6.498;2022-10-19T09:10:03;12.50;99.90
52879;DHT22;38747;53.140;6.498;2022-10-19T09:15:17;12.50;99.90
52879;DHT22;38747;53.140;6.498;2022-10-19T09:17:43;12.60;99.90
52879;DHT22;38747;53.140;6.498;2022-10-19T09:20:16;12.60;99.90
52879;DHT22;38747;53.140;6.498;2022-10-19T09:22:42;12.70;99.90
52879;DHT22;38747;53.140;6.498;2022-10-19T09:25:22;12.70;99.90
52879;DHT22;38747;53.140;6.498;2022-10-19T09:28:05;12.70;99.90
52879;DHT22;38747;53.140;6.498;2022-10-19T09:30:39;12.70;99.90
52879;DHT22;38747;53.140;6.498;2022-10-19T09:33:11;12.80;99.90
52879;DHT22;38747;53.140;6.498;2022-10-19T09:35:42;12.80;99.90
52879;DHT22;38747;53.140;6.498;2022-10-19T09:38:10;12.80;99.90
52879;DHT22;38747;53.140;6.498;2022-10-19T09:40:38;12.80;99.90
52879;DHT22;38747;53.140;6.498;2022-10-19T09:43:06;12.80;99.90
52879;DHT22;38747;53.140;6.498;2022-10-19T09:45:58;12.80;99.90
52879;DHT22;38747;53.140;6.498;2022-10-19T09:48:44;12.80;99.90
52879;DHT22;38747;53.140;6.498;2022-10-19T09:51:13;12.80;99.90
52879;DHT22;38747;53.140;6.498;2022-10-19T09:53:54;12.80;99.90
52879;DHT22;38747;53.140;6.498;2022-10-19T09:56:23;12.80;99.90
52879;DHT22;38747;53.140;6.498;2022-10-19T09:58:57;12.90;99.90
52879;DHT22;38747;53.140;6.498;2022-10-19T10:01:36;12.90;99.90
52879;DHT22;38747;53.140;6.498;2022-10-19T10:04:07;12.90;99.90
52879;DHT22;38747;53.140;6.498;2022-10-19T10:06:34;12.90;99.90
52879;DHT22;38747;53.140;6.498;2022-10-19T10:09:00;12.90;99.90
52879;DHT22;38747;53.140;6.498;2022-10-19T10:11:35;12.90;99.90
52879;DHT22;38747;53.140;6.498;2022-10-19T10:14:33;12.90;99.90
52879;DHT22;38747;53.140;6.498;2022-10-19T10:17:06;13.00;99.90
52879;DHT22;38747;53.140;6.498;2022-10-19T10:19:35;13.00;99.90
52879;DHT22;38747;53.140;6.498;2022-10-19T10:22:03;13.10;99.90
52879;DHT22;38747;53.140;6.498;2022-10-19T10:24:31;13.10;99.90
52879;DHT22;38747;53.140;6.498;2022-10-19T10:27:02;13.20;99.90
52879;DHT22;38747;53.140;6.498;2022-10-19T10:29:30;13.30;99.90
52879;DHT22;38747;53.140;6.498;2022-10-19T10:32:19;13.30;99.90
52879;DHT22;38747;53.140;6.498;2022-10-19T10:35:06;13.40;99.90
52879;DHT22;38747;53.140;6.498;2022-10-19T10:37:43;13.30;99.90
52879;DHT22;38747;53.140;6.498;2022-10-19T10:40:48;13.30;99.90
52879;DHT22;38747;53.140;6.498;2022-10-19T10:43:16;13.30;99.90
52879;DHT22;38747;53.140;6.498;2022-10-19T10:45:48;13.30;99.90
52879;DHT22;38747;53.140;6.498;2022-10-19T10:48:52;13.30;99.90
52879;DHT22;38747;53.140;6.498;2022-10-19T10:51:39;13.40;99.90
52879;DHT22;38747;53.140;6.498;2022-10-19T10:54:27;13.30;99.90
52879;DHT22;38747;53.140;6.498;2022-10-19T10:57:17;13.40;99.90
52879;DHT22;38747;53.140;6.498;2022-10-19T11:00:04;13.40;99.90
52879;DHT22;38747;53.140;6.498;2022-10-19T11:02:47;13.50;99.90
52879;DHT22;38747;53.140;6.498;2022-10-19T11:05:23;13.50;99.90
52879;DHT22;38747;53.140;6.498;2022-10-19T11:08:44;13.50;99.90
52879;DHT22;38747;53.140;6.498;2022-10-19T11:10:54;13.60;99.90
52879;DHT22;38747;53.140;6.498;2022-10-19T11:13:28;13.60;99.90
52879;DHT22;38747;53.140;6.498;2022-10-19T11:16:02;13.70;99.90
52879;DHT22;38747;53.140;6.498;2022-10-19T11:18:56;13.70;99.90
52879;DHT22;38747;53.140;6.498;2022-10-19T11:24:41;13.70;99.90
52879;DHT22;38747;53.140;6.498;2022-10-19T11:30:11;13.80;99.90
52879;DHT22;38747;53.140;6.498;2022-10-19T11:35:47;13.90;99.90
52879;DHT22;38747;53.140;6.498;2022-10-19T11:40:53;14.00;99.90
52879;DHT22;38747;53.140;6.498;2022-10-19T11:46:22;13.90;99.90
52879;DHT22;38747;53.140;6.498;2022-10-19T11:48:53;13.90;99.90
52879;DHT22;38747;53.140;6.498;2022-10-19T11:51:39;13.80;99.90
52879;DHT22;38747;53.140;6.498;2022-10-19T11:57:18;13.80;99.90
52879;DHT22;38747;53.140;6.498;2022-10-19T12:05:32;13.90;99.90
52879;DHT22;38747;53.140;6.498;2022-10-19T12:10:42;13.80;99.90
52879;DHT22;38747;53.140;6.498;2022-10-19T12:13:13;13.90;99.90
52879;DHT22;38747;53.140;6.498;2022-10-19T12:15:46;13.90;99.90
52879;DHT22;38747;53.140;6.498;2022-10-19T12:20:57;14.00;99.90
52879;DHT22;38747;53.140;6.498;2022-10-19T12:26:01;13.80;99.90
52879;DHT22;38747;53.140;6.498;2022-10-19T12:28:31;13.70;99.90
52879;DHT22;38747;53.140;6.498;2022-10-19T12:30:58;13.70;99.90
52879;DHT22;38747;53.140;6.498;2022-10-19T12:33:57;13.70;99.90
52879;DHT22;38747;53.140;6.498;2022-10-19T12:36:45;13.60;99.90
52879;DHT22;38747;53.140;6.498;2022-10-19T12:41:58;13.70;99.90
52879;DHT22;38747;53.140;6.498;2022-10-19T12:47:20;13.70;99.90
52879;DHT22;38747;53.140;6.498;2022-10-19T12:49:51;13.50;99.90
52879;DHT22;38747;53.140;6.498;2022-10-19T12:55:30;13.40;99.90
52879;DHT22;38747;53.140;6.498;2022-10-19T12:58:20;13.40;99.90
52879;DHT22;38747;53.140;6.498;2022-10-19T13:01:02;13.40;99.90
52879;DHT22;38747;53.140;6.498;2022-10-19T13:06:34;13.70;99.90
52879;DHT22;38747;53.140;6.498;2022-10-19T13:09:04;13.80;99.90
52879;DHT22;38747;53.140;6.498;2022-10-19T13:11:30;13.90;99.90
52879;DHT22;38747;53.140;6.498;2022-10-19T13:21:46;13.90;99.90
52879;DHT22;38747;53.140;6.498;2022-10-19T13:29:47;13.60;99.90
52879;DHT22;38747;53.140;6.498;2022-10-19T13:32:36;13.60;99.90
52879;DHT22;38747;53.140;6.498;2022-10-19T13:35:23;13.60;99.90
52879;DHT22;38747;53.140;6.498;2022-10-19T13:43:21;13.40;99.90
52879;DHT22;38747;53.140;6.498;2022-10-19T13:57:22;13.20;99.90
52879;DHT22;38747;53.140;6.498;2022-10-19T14:00:12;13.20;99.90
52879;DHT22;38747;53.140;6.498;2022-10-19T14:11:19;12.80;99.90
52879;DHT22;38747;53.140;6.498;2022-10-19T14:14:12;12.70;99.90
52879;DHT22;38747;53.140;6.498;2022-10-19T14:17:15;12.70;99.90
52879;DHT22;38747;53.140;6.498;2022-10-19T14:19:43;12.70;99.90
52879;DHT22;38747;53.140;6.498;2022-10-19T14:22:39;12.70;99.90
52879;DHT22;38747;53.140;6.498;2022-10-19T14:25:21;12.70;99.90
52879;DHT22;38747;53.140;6.498;2022-10-19T14:27:57;12.80;99.90
52879;DHT22;38747;53.140;6.498;2022-10-19T14:30:27;12.90;99.90
52879;DHT22;38747;53.140;6.498;2022-10-19T14:32:54;12.90;99.90
52879;DHT22;38747;53.140;6.498;2022-10-19T14:35:27;12.90;99.90
52879;DHT22;38747;53.140;6.498;2022-10-19T14:37:53;13.00;99.90
52879;DHT22;38747;53.140;6.498;2022-10-19T14:40:31;12.90;99.90
52879;DHT22;38747;53.140;6.498;2022-10-19T14:42:59;13.00;99.90
52879;DHT22;38747;53.140;6.498;2022-10-19T14:45:30;13.00;99.90
52879;DHT22;38747;53.140;6.498;2022-10-19T14:48:05;13.00;99.90
52879;DHT22;38747;53.140;6.498;2022-10-19T14:50:48;13.10;99.90
52879;DHT22;38747;53.140;6.498;2022-10-19T14:56:21;13.00;99.90
52879;DHT22;38747;53.140;6.498;2022-10-19T14:58:58;13.00;99.90
52879;DHT22;38747;53.140;6.498;2022-10-19T15:01:25;13.00;99.90
52879;DHT22;38747;53.140;6.498;2022-10-19T15:03:50;13.00;99.90
52879;DHT22;38747;53.140;6.498;2022-10-19T15:06:28;13.00;99.90
52879;DHT22;38747;53.140;6.498;2022-10-19T15:09:01;12.90;99.90
52879;DHT22;38747;53.140;6.498;2022-10-19T15:11:30;13.00;99.90
52879;DHT22;38747;53.140;6.498;2022-10-19T15:14:02;12.90;99.90
52879;DHT22;38747;53.140;6.498;2022-10-19T15:19:05;12.90;99.90
52879;DHT22;38747;53.140;6.498;2022-10-19T15:21:35;12.80;99.90
52879;DHT22;38747;53.140;6.498;2022-10-19T15:24:25;12.80;99.90
52879;DHT22;38747;53.140;6.498;2022-10-19T15:26:52;12.80;99.90
52879;DHT22;38747;53.140;6.498;2022-10-19T15:29:20;12.70;99.90
52879;DHT22;38747;53.140;6.498;2022-10-19T15:31:46;12.60;99.90
52879;DHT22;38747;53.140;6.498;2022-10-19T15:34:22;12.50;99.90
52879;DHT22;38747;53.140;6.498;2022-10-19T15:36:56;12.50;99.90
52879;DHT22;38747;53.140;6.498;2022-10-19T15:39:28;12.50;99.90
52879;DHT22;38747;53.140;6.498;2022-10-19T15:41:55;12.40;99.90
52879;DHT22;38747;53.140;6.498;2022-10-19T15:44:39;12.40;99.90
52879;DHT22;38747;53.140;6.498;2022-10-19T15:52:20;12.20;99.90
52879;DHT22;38747;53.140;6.498;2022-10-19T15:54:50;12.10;99.90
52879;DHT22;38747;53.140;6.498;2022-10-19T15:57:34;12.10;99.90
52879;DHT22;38747;53.140;6.498;2022-10-19T16:00:09;12.00;99.90
52879;DHT22;38747;53.140;6.498;2022-10-19T16:02:36;12.00;99.90
52879;DHT22;38747;53.140;6.498;2022-10-19T16:05:03;11.90;99.90
52879;DHT22;38747;53.140;6.498;2022-10-19T16:07:31;11.90;99.90
52879;DHT22;38747;53.140;6.498;2022-10-19T16:09:57;11.80;99.90
52879;DHT22;38747;53.140;6.498;2022-10-19T16:12:25;11.80;99.90
52879;DHT22;38747;53.140;6.498;2022-10-19T16:14:52;11.70;99.90
52879;DHT22;38747;53.140;6.498;2022-10-19T16:17:18;11.60;99.90
52879;DHT22;38747;53.140;6.498;2022-10-19T16:19:44;11.60;99.90
52879;DHT22;38747;53.140;6.498;2022-10-19T16:22:10;11.50;99.90
52879;DHT22;38747;53.140;6.498;2022-10-19T16:24:36;11.40;99.90
52879;DHT22;38747;53.140;6.498;2022-10-19T16:27:02;11.40;99.90
52879;DHT22;38747;53.140;6.498;2022-10-19T16:29:27;11.40;99.90
52879;DHT22;38747;53.140;6.498;2022-10-19T16:31:53;11.30;99.90
52879;DHT22;38747;53.140;6.498;2022-10-19T16:34:19;11.30;99.90
52879;DHT22;38747;53.140;6.498;2022-10-19T16:36:44;11.20;99.90
52879;DHT22;38747;53.140;6.498;2022-10-19T16:39:10;11.10;99.90
52879;DHT22;38747;53.140;6.498;2022-10-19T16:41:36;11.10;99.90
52879;DHT22;38747;53.140;6.498;2022-10-19T16:44:01;11.00;99.90
52879;DHT22;38747;53.140;6.498;2022-10-19T16:46:27;11.00;99.90
52879;DHT22;38747;53.140;6.498;2022-10-19T16:48:53;11.00;99.90
52879;DHT22;38747;53.140;6.498;2022-10-19T16:54:00;10.80;99.90
52879;DHT22;38747;53.140;6.498;2022-10-19T16:56:28;10.80;99.90
52879;DHT22;38747;53.140;6.498;2022-10-19T16:58:56;10.80;99.90
52879;DHT22;38747;53.140;6.498;2022-10-19T17:01:23;10.70;99.90
52879;DHT22;38747;53.140;6.498;2022-10-19T17:03:49;10.70;99.90
52879;DHT22;38747;53.140;6.498;2022-10-19T17:06:15;10.60;99.90
52879;DHT22;38747;53.140;6.498;2022-10-19T17:08:41;10.60;99.90
52879;DHT22;38747;53.140;6.498;2022-10-19T17:11:20;10.50;99.90
52879;DHT22;38747;53.140;6.498;2022-10-19T17:13:47;10.50;99.90
52879;DHT22;38747;53.140;6.498;2022-10-19T17:16:17;10.50;99.90
52879;DHT22;38747;53.140;6.498;2022-10-19T17:18:45;10.50;99.90
52879;DHT22;38747;53.140;6.498;2022-10-19T17:21:18;10.50;99.90
52879;DHT22;38747;53.140;6.498;2022-10-19T17:23:45;10.40;99.90
52879;DHT22;38747;53.140;6.498;2022-10-19T17:26:11;10.30;99.90
52879;DHT22;38747;53.140;6.498;2022-10-19T17:28:38;10.30;99.90
52879;DHT22;38747;53.140;6.498;2022-10-19T17:31:09;10.30;99.90
52879;DHT22;38747;53.140;6.498;2022-10-19T17:33:36;10.30;99.90
52879;DHT22;38747;53.140;6.498;2022-10-19T17:36:13;10.40;99.90
52879;DHT22;38747;53.140;6.498;2022-10-19T17:38:40;10.30;99.90
52879;DHT22;38747;53.140;6.498;2022-10-19T17:41:11;10.30;99.90
52879;DHT22;38747;53.140;6.498;2022-10-19T17:43:38;10.30;99.90
52879;DHT22;38747;53.140;6.498;2022-10-19T17:46:07;10.30;99.90
52879;DHT22;38747;53.140;6.498;2022-10-19T17:48:35;10.30;99.90
52879;DHT22;38747;53.140;6.498;2022-10-19T17:51:03;10.40;99.90